sensor_id;sensor_type;location;lat;lon;timestamp;P1;durP1;ratioP1;P2;durP2;ratioP2
65535;SDS011;52145;49.342;9.116;2022-10-26T00:01:29;7.85;;;3.28;;
65535;SDS011;52145;49.342;9.116;2022-10-26T00:03:54;9.40;;;3.47;;
65535;SDS011;52145;49.342;9.116;2022-10-26T00:06:21;10.50;;;3.03;;
65535;SDS011;52145;49.342;9.116;2022-10-26T00:08:50;8.25;;;3.03;;
65535;SDS011;52145;49.342;9.116;2022-10-26T00:11:16;8.45;;;3.40;;
65535;SDS011;52145;49.342;9.116;2022-10-26T00:13:43;15.93;;;3.63;;
65535;SDS011;52145;49.342;9.116;2022-10-26T00:16:10;10.40;;;3.42;;
65535;SDS011;52145;49.342;9.116;2022-10-26T00:18:38;10.75;;;3.90;;
65535;SDS011;52145;49.342;9.116;2022-10-26T00:21:05;11.65;;;3.90;;
65535;SDS011;52145;49.342;9.116;2022-10-26T00:23:31;10.85;;;4.38;;
65535;SDS011;52145;49.342;9.116;2022-10-26T00:25:57;13.20;;;4.57;;
65535;SDS011;52145;49.342;9.116;2022-10-26T00:28:23;10.98;;;4.15;;
65535;SDS011;52145;49.342;9.116;2022-10-26T00:30:49;20.58;;;4.50;;
65535;SDS011;52145;49.342;9.116;2022-10-26T00:33:14;15.27;;;4.28;;
65535;SDS011;52145;49.342;9.116;2022-10-26T00:35:40;11.13;;;4.13;;
65535;SDS011;52145;49.342;9.116;2022-10-26T00:38:06;12.65;;;5.05;;
65535;SDS011;52145;49.342;9.116;2022-10-26T00:40:31;11.57;;;4.60;;
65535;SDS011;52145;49.342;9.116;2022-10-26T00:42:57;10.48;;;4.13;;
65535;SDS011;52145;49.342;9.116;2022-10-26T00:45:27;15.75;;;4.75;;
65535;SDS011;52145;49.342;9.116;2022-10-26T00:50:25;10.07;;;4.55;;
65535;SDS011;52145;49.342;9.116;2022-10-26T00:53:11;8.68;;;4.55;;
65535;SDS011;52145;49.342;9.116;2022-10-26T00:55:38;9.52;;;4.43;;
65535;SDS011;52145;49.342;9.116;2022-10-26T00:58:08;9.02;;;4.10;;
65535;SDS011;52145;49.342;9.116;2022-10-26T01:00:35;12.20;;;4.15;;
65535;SDS011;52145;49.342;9.116;2022-10-26T01:03:06;9.48;;;3.50;;
65535;SDS011;52145;49.342;9.116;2022-10-26T01:05:32;11.25;;;4.38;;
65535;SDS011;52145;49.342;9.116;2022-10-26T01:08:00;12.20;;;3.95;;
65535;SDS011;52145;49.342;9.116;2022-10-26T01:10:26;12.55;;;3.70;;
65535;SDS011;52145;49.342;9.116;2022-10-26T01:12:53;11.48;;;3.38;;
65535;SDS011;52145;49.342;9.116;2022-10-26T01:15:21;10.82;;;4.40;;
65535;SDS011;52145;49.342;9.116;2022-10-26T01:17:53;8.93;;;3.47;;
65535;SDS011;52145;49.342;9.116;2022-10-26T01:22:56;7.85;;;3.63;;
65535;SDS011;52145;49.342;9.116;2022-10-26T01:25:37;8.27;;;3.15;;
65535;SDS011;52145;49.342;9.116;2022-10-26T01:31:03;8.27;;;3.40;;
65535;SDS011;52145;49.342;9.116;2022-10-26T01:33:38;8.88;;;3.03;;
65535;SDS011;52145;49.342;9.116;2022-10-26T01:39:04;6.43;;;2.65;;
65535;SDS011;52145;49.342;9.116;2022-10-26T01:44:19;8.68;;;2.35;;
65535;SDS011;52145;49.342;9.116;2022-10-26T01:46:50;11.23;;;2.67;;
65535;SDS011;52145;49.342;9.116;2022-10-26T01:49:19;7.07;;;3.13;;
65535;SDS011;52145;49.342;9.116;2022-10-26T01:51:47;16.73;;;3.25;;
65535;SDS011;52145;49.342;9.116;2022-10-26T01:54:14;6.63;;;2.70;;
65535;SDS011;52145;49.342;9.116;2022-10-26T01:56:40;6.90;;;2.88;;
65535;SDS011;52145;49.342;9.116;2022-10-26T01:59:21;8.35;;;2.80;;
65535;SDS011;52145;49.342;9.116;2022-10-26T02:02:06;9.93;;;3.70;;
65535;SDS011;52145;49.342;9.116;2022-10-26T02:07:29;7.45;;;2.65;;
65535;SDS011;52145;49.342;9.116;2022-10-26T02:17:58;5.82;;;3.05;;
65535;SDS011;52145;49.342;9.116;2022-10-26T02:20:28;5.15;;;2.70;;
65535;SDS011;52145;49.342;9.116;2022-10-26T02:22:57;5.53;;;2.20;;
65535;SDS011;52145;49.342;9.116;2022-10-26T02:25:30;8.55;;;2.60;;
65535;SDS011;52145;49.342;9.116;2022-10-26T02:28:00;11.65;;;3.10;;
65535;SDS011;52145;49.342;9.116;2022-10-26T02:30:30;7.82;;;2.88;;
65535;SDS011;52145;49.342;9.116;2022-10-26T02:32:57;11.65;;;3.20;;
65535;SDS011;52145;49.342;9.116;2022-10-26T02:35:24;11.65;;;4.10;;
65535;SDS011;52145;49.342;9.116;2022-10-26T02:37:58;7.82;;;3.38;;
65535;SDS011;52145;49.342;9.116;2022-10-26T02:40:27;9.48;;;3.10;;
65535;SDS011;52145;49.342;9.116;2022-10-26T02:42:53;10.60;;;3.50;;
65535;SDS011;52145;49.342;9.116;2022-10-26T02:45:24;8.13;;;3.60;;
65535;SDS011;52145;49.342;9.116;2022-10-26T02:47:52;11.27;;;4.75;;
65535;SDS011;52145;49.342;9.116;2022-10-26T02:50:20;14.05;;;4.88;;
65535;SDS011;52145;49.342;9.116;2022-10-26T02:53:04;10.25;;;4.15;;
65535;SDS011;52145;49.342;9.116;2022-10-26T02:55:39;7.38;;;4.20;;
65535;SDS011;52145;49.342;9.116;2022-10-26T02:58:13;10.15;;;4.30;;
65535;SDS011;52145;49.342;9.116;2022-10-26T03:00:43;10.05;;;4.07;;
65535;SDS011;52145;49.342;9.116;2022-10-26T03:03:10;8.95;;;3.83;;
65535;SDS011;52145;49.342;9.116;2022-10-26T03:05:39;7.97;;;3.08;;
65535;SDS011;52145;49.342;9.116;2022-10-26T03:08:06;9.70;;;3.40;;
65535;SDS011;52145;49.342;9.116;2022-10-26T03:10:32;10.07;;;4.03;;
65535;SDS011;52145;49.342;9.116;2022-10-26T03:13:03;9.02;;;3.80;;
65535;SDS011;52145;49.342;9.116;2022-10-26T03:15:28;8.68;;;3.20;;
65535;SDS011;52145;49.342;9.116;2022-10-26T03:17:54;7.22;;;3.55;;
65535;SDS011;52145;49.342;9.116;2022-10-26T03:20:19;18.67;;;3.67;;
65535;SDS011;52145;49.342;9.116;2022-10-26T03:22:48;7.72;;;3.42;;
65535;SDS011;52145;49.342;9.116;2022-10-26T03:25:13;7.88;;;3.05;;
65535;SDS011;52145;49.342;9.116;2022-10-26T03:27:39;8.73;;;3.60;;
65535;SDS011;52145;49.342;9.116;2022-10-26T03:30:05;7.45;;;3.15;;
65535;SDS011;52145;49.342;9.116;2022-10-26T03:32:31;7.88;;;3.42;;
65535;SDS011;52145;49.342;9.116;2022-10-26T03:34:57;10.05;;;4.22;;
65535;SDS011;52145;49.342;9.116;2022-10-26T03:37:22;14.20;;;3.85;;
65535;SDS011;52145;49.342;9.116;2022-10-26T03:39:48;10.52;;;4.00;;
65535;SDS011;52145;49.342;9.116;2022-10-26T03:42:13;8.32;;;3.72;;
65535;SDS011;52145;49.342;9.116;2022-10-26T03:44:39;8.35;;;3.40;;
65535;SDS011;52145;49.342;9.116;2022-10-26T03:47:04;9.18;;;3.88;;
65535;SDS011;52145;49.342;9.116;2022-10-26T03:49:30;11.20;;;3.40;;
65535;SDS011;52145;49.342;9.116;2022-10-26T03:51:55;8.93;;;3.40;;
65535;SDS011;52145;49.342;9.116;2022-10-26T03:54:21;15.07;;;3.47;;
65535;SDS011;52145;49.342;9.116;2022-10-26T03:56:46;8.68;;;3.13;;
65535;SDS011;52145;49.342;9.116;2022-10-26T03:59:13;11.18;;;3.45;;
65535;SDS011;52145;49.342;9.116;2022-10-26T04:01:38;12.77;;;4.00;;
65535;SDS011;52145;49.342;9.116;2022-10-26T04:04:04;11.93;;;3.42;;
65535;SDS011;52145;49.342;9.116;2022-10-26T04:06:29;10.30;;;3.25;;
65535;SDS011;52145;49.342;9.116;2022-10-26T04:08:55;12.85;;;3.38;;
65535;SDS011;52145;49.342;9.116;2022-10-26T04:11:26;13.15;;;3.25;;
65535;SDS011;52145;49.342;9.116;2022-10-26T04:13:52;6.80;;;2.70;;
65535;SDS011;52145;49.342;9.116;2022-10-26T04:16:19;8.88;;;2.97;;
65535;SDS011;52145;49.342;9.116;2022-10-26T04:18:45;4.40;;;2.53;;
65535;SDS011;52145;49.342;9.116;2022-10-26T04:21:11;5.43;;;2.65;;
65535;SDS011;52145;49.342;9.116;2022-10-26T04:23:36;9.90;;;2.47;;
65535;SDS011;52145;49.342;9.116;2022-10-26T04:26:03;8.30;;;2.88;;
65535;SDS011;52145;49.342;9.116;2022-10-26T04:28:30;4.95;;;2.35;;
65535;SDS011;52145;49.342;9.116;2022-10-26T04:30:55;5.38;;;2.22;;
65535;SDS011;52145;49.342;9.116;2022-10-26T04:33:21;5.35;;;2.35;;
65535;SDS011;52145;49.342;9.116;2022-10-26T04:35:46;3.97;;;2.03;;
65535;SDS011;52145;49.342;9.116;2022-10-26T04:38:12;5.78;;;2.25;;
65535;SDS011;52145;49.342;9.116;2022-10-26T04:40:37;6.32;;;2.20;;
65535;SDS011;52145;49.342;9.116;2022-10-26T04:43:03;8.10;;;2.03;;
65535;SDS011;52145;49.342;9.116;2022-10-26T04:45:29;5.65;;;2.20;;
65535;SDS011;52145;49.342;9.116;2022-10-26T04:48:09;8.65;;;2.80;;
65535;SDS011;52145;49.342;9.116;2022-10-26T04:50:35;8.13;;;2.40;;
65535;SDS011;52145;49.342;9.116;2022-10-26T04:53:06;4.80;;;2.80;;
65535;SDS011;52145;49.342;9.116;2022-10-26T04:55:32;9.27;;;2.78;;
65535;SDS011;52145;49.342;9.116;2022-10-26T04:57:58;8.98;;;2.42;;
65535;SDS011;52145;49.342;9.116;2022-10-26T05:00:24;8.40;;;2.92;;
65535;SDS011;52145;49.342;9.116;2022-10-26T05:02:50;6.68;;;2.60;;
65535;SDS011;52145;49.342;9.116;2022-10-26T05:05:16;8.60;;;2.63;;
65535;SDS011;52145;49.342;9.116;2022-10-26T05:07:42;5.40;;;2.70;;
65535;SDS011;52145;49.342;9.116;2022-10-26T05:10:07;7.80;;;2.78;;
65535;SDS011;52145;49.342;9.116;2022-10-26T05:12:33;8.57;;;2.60;;
65535;SDS011;52145;49.342;9.116;2022-10-26T05:14:59;6.82;;;3.10;;
65535;SDS011;52145;49.342;9.116;2022-10-26T05:17:25;8.00;;;2.60;;
65535;SDS011;52145;49.342;9.116;2022-10-26T05:19:50;14.27;;;4.28;;
65535;SDS011;52145;49.342;9.116;2022-10-26T05:22:24;14.35;;;2.78;;
65535;SDS011;52145;49.342;9.116;2022-10-26T05:24:49;9.20;;;3.05;;
65535;SDS011;52145;49.342;9.116;2022-10-26T05:27:15;8.35;;;3.10;;
65535;SDS011;52145;49.342;9.116;2022-10-26T05:29:41;8.40;;;2.80;;
65535;SDS011;52145;49.342;9.116;2022-10-26T05:32:06;10.88;;;2.53;;
65535;SDS011;52145;49.342;9.116;2022-10-26T05:34:32;7.07;;;2.78;;
65535;SDS011;52145;49.342;9.116;2022-10-26T05:36:57;5.55;;;2.40;;
65535;SDS011;52145;49.342;9.116;2022-10-26T05:39:23;8.85;;;3.13;;
65535;SDS011;52145;49.342;9.116;2022-10-26T05:41:48;6.85;;;2.30;;
65535;SDS011;52145;49.342;9.116;2022-10-26T05:44:14;8.45;;;2.40;;
65535;SDS011;52145;49.342;9.116;2022-10-26T05:46:39;4.82;;;2.40;;
65535;SDS011;52145;49.342;9.116;2022-10-26T05:49:05;6.85;;;2.53;;
65535;SDS011;52145;49.342;9.116;2022-10-26T05:51:33;5.53;;;2.35;;
65535;SDS011;52145;49.342;9.116;2022-10-26T05:54:01;8.60;;;2.88;;
65535;SDS011;52145;49.342;9.116;2022-10-26T05:56:34;13.30;;;2.40;;
65535;SDS011;52145;49.342;9.116;2022-10-26T05:59:01;7.53;;;2.47;;
65535;SDS011;52145;49.342;9.116;2022-10-26T06:06:41;5.38;;;2.25;;
65535;SDS011;52145;49.342;9.116;2022-10-26T06:09:12;7.05;;;2.22;;
65535;SDS011;52145;49.342;9.116;2022-10-26T06:11:39;7.85;;;2.58;;
65535;SDS011;52145;49.342;9.116;2022-10-26T06:14:05;8.63;;;2.78;;
65535;SDS011;52145;49.342;9.116;2022-10-26T06:16:39;5.28;;;2.03;;
65535;SDS011;52145;49.342;9.116;2022-10-26T06:19:35;6.88;;;2.67;;
65535;SDS011;52145;49.342;9.116;2022-10-26T06:24:48;11.90;;;4.13;;
65535;SDS011;52145;49.342;9.116;2022-10-26T06:30:20;18.05;;;4.95;;
65535;SDS011;52145;49.342;9.116;2022-10-26T06:32:47;9.93;;;4.25;;
65535;SDS011;52145;49.342;9.116;2022-10-26T06:38:08;10.38;;;4.75;;
65535;SDS011;52145;49.342;9.116;2022-10-26T06:40:38;6.43;;;3.67;;
65535;SDS011;52145;49.342;9.116;2022-10-26T06:43:25;8.93;;;4.32;;
65535;SDS011;52145;49.342;9.116;2022-10-26T06:46:05;11.30;;;4.05;;
65535;SDS011;52145;49.342;9.116;2022-10-26T06:48:34;14.93;;;5.00;;
65535;SDS011;52145;49.342;9.116;2022-10-26T06:51:12;7.40;;;3.80;;
65535;SDS011;52145;49.342;9.116;2022-10-26T06:53:41;11.05;;;3.67;;
65535;SDS011;52145;49.342;9.116;2022-10-26T06:56:14;6.20;;;3.88;;
65535;SDS011;52145;49.342;9.116;2022-10-26T06:58:40;8.27;;;3.13;;
65535;SDS011;52145;49.342;9.116;2022-10-26T07:01:09;8.88;;;3.42;;
65535;SDS011;52145;49.342;9.116;2022-10-26T07:03:36;8.18;;;3.20;;
65535;SDS011;52145;49.342;9.116;2022-10-26T07:06:01;9.55;;;3.45;;
65535;SDS011;52145;49.342;9.116;2022-10-26T07:08:27;9.88;;;3.72;;
65535;SDS011;52145;49.342;9.116;2022-10-26T07:10:55;13.30;;;4.25;;
65535;SDS011;52145;49.342;9.116;2022-10-26T07:13:21;10.40;;;4.15;;
65535;SDS011;52145;49.342;9.116;2022-10-26T07:15:46;9.75;;;3.97;;
65535;SDS011;52145;49.342;9.116;2022-10-26T07:18:12;7.28;;;3.63;;
65535;SDS011;52145;49.342;9.116;2022-10-26T07:20:38;9.98;;;3.92;;
65535;SDS011;52145;49.342;9.116;2022-10-26T07:23:05;11.02;;;3.47;;
65535;SDS011;52145;49.342;9.116;2022-10-26T07:25:32;9.23;;;3.58;;
65535;SDS011;52145;49.342;9.116;2022-10-26T07:27:58;10.05;;;3.70;;
65535;SDS011;52145;49.342;9.116;2022-10-26T07:30:25;15.23;;;3.60;;
65535;SDS011;52145;49.342;9.116;2022-10-26T07:32:58;11.73;;;3.75;;
65535;SDS011;52145;49.342;9.116;2022-10-26T07:35:25;9.38;;;3.92;;
65535;SDS011;52145;49.342;9.116;2022-10-26T07:37:50;10.50;;;3.40;;
65535;SDS011;52145;49.342;9.116;2022-10-26T07:40:19;8.48;;;3.33;;
65535;SDS011;52145;49.342;9.116;2022-10-26T07:42:45;10.25;;;3.38;;
65535;SDS011;52145;49.342;9.116;2022-10-26T07:45:10;11.10;;;3.85;;
65535;SDS011;52145;49.342;9.116;2022-10-26T07:47:36;9.98;;;4.00;;
65535;SDS011;52145;49.342;9.116;2022-10-26T07:50:01;9.05;;;4.00;;
65535;SDS011;52145;49.342;9.116;2022-10-26T07:52:27;9.80;;;3.40;;
65535;SDS011;52145;49.342;9.116;2022-10-26T07:54:52;7.00;;;3.55;;
65535;SDS011;52145;49.342;9.116;2022-10-26T07:57:18;12.20;;;3.70;;
65535;SDS011;52145;49.342;9.116;2022-10-26T07:59:43;10.02;;;3.22;;
65535;SDS011;52145;49.342;9.116;2022-10-26T08:02:09;12.15;;;4.43;;
65535;SDS011;52145;49.342;9.116;2022-10-26T08:04:34;12.02;;;4.35;;
65535;SDS011;52145;49.342;9.116;2022-10-26T08:07:00;11.65;;;3.97;;
65535;SDS011;52145;49.342;9.116;2022-10-26T08:09:25;9.23;;;4.60;;
65535;SDS011;52145;49.342;9.116;2022-10-26T08:11:51;8.52;;;4.53;;
65535;SDS011;52145;49.342;9.116;2022-10-26T08:14:16;16.15;;;4.90;;
65535;SDS011;52145;49.342;9.116;2022-10-26T08:16:42;11.63;;;4.32;;
65535;SDS011;52145;49.342;9.116;2022-10-26T08:19:07;11.32;;;4.00;;
65535;SDS011;52145;49.342;9.116;2022-10-26T08:21:34;13.27;;;5.30;;
65535;SDS011;52145;49.342;9.116;2022-10-26T08:23:59;8.85;;;4.03;;
65535;SDS011;52145;49.342;9.116;2022-10-26T08:26:25;10.85;;;4.13;;
65535;SDS011;52145;49.342;9.116;2022-10-26T08:28:51;8.45;;;3.60;;
65535;SDS011;52145;49.342;9.116;2022-10-26T08:31:16;9.70;;;3.78;;
65535;SDS011;52145;49.342;9.116;2022-10-26T08:33:42;10.45;;;4.20;;
65535;SDS011;52145;49.342;9.116;2022-10-26T08:36:07;8.35;;;3.97;;
65535;SDS011;52145;49.342;9.116;2022-10-26T08:38:33;8.55;;;3.95;;
65535;SDS011;52145;49.342;9.116;2022-10-26T08:41:04;9.40;;;4.72;;
65535;SDS011;52145;49.342;9.116;2022-10-26T08:43:33;10.25;;;3.85;;
65535;SDS011;52145;49.342;9.116;2022-10-26T08:46:13;10.20;;;3.95;;
65535;SDS011;52145;49.342;9.116;2022-10-26T08:48:53;15.50;;;3.80;;
65535;SDS011;52145;49.342;9.116;2022-10-26T08:51:28;8.20;;;3.90;;
65535;SDS011;52145;49.342;9.116;2022-10-26T08:54:00;9.75;;;4.30;;
65535;SDS011;52145;49.342;9.116;2022-10-26T08:56:36;16.73;;;4.53;;
65535;SDS011;52145;49.342;9.116;2022-10-26T08:59:08;11.93;;;4.13;;
65535;SDS011;52145;49.342;9.116;2022-10-26T09:01:51;10.52;;;4.75;;
65535;SDS011;52145;49.342;9.116;2022-10-26T09:04:18;11.75;;;3.10;;
65535;SDS011;52145;49.342;9.116;2022-10-26T09:06:55;9.45;;;2.90;;
65535;SDS011;52145;49.342;9.116;2022-10-26T09:16:14;10.93;;;2.75;;
65535;SDS011;52145;49.342;9.116;2022-10-26T09:21:38;9.70;;;2.70;;
65535;SDS011;52145;49.342;9.116;2022-10-26T09:29:10;8.85;;;2.58;;
65535;SDS011;52145;49.342;9.116;2022-10-26T09:31:41;8.40;;;3.00;;
65535;SDS011;52145;49.342;9.116;2022-10-26T09:34:11;12.85;;;3.42;;
65535;SDS011;52145;49.342;9.116;2022-10-26T09:36:50;11.18;;;3.47;;
65535;SDS011;52145;49.342;9.116;2022-10-26T09:42:28;13.68;;;4.20;;
65535;SDS011;52145;49.342;9.116;2022-10-26T09:45:10;7.90;;;3.42;;
65535;SDS011;52145;49.342;9.116;2022-10-26T09:48:20;8.02;;;4.00;;
65535;SDS011;52145;49.342;9.116;2022-10-26T09:50:59;11.20;;;4.20;;
65535;SDS011;52145;49.342;9.116;2022-10-26T09:53:25;13.05;;;4.80;;
65535;SDS011;52145;49.342;9.116;2022-10-26T09:55:58;12.85;;;4.10;;
65535;SDS011;52145;49.342;9.116;2022-10-26T09:58:28;11.65;;;4.15;;
65535;SDS011;52145;49.342;9.116;2022-10-26T10:00:58;12.50;;;4.03;;
65535;SDS011;52145;49.342;9.116;2022-10-26T10:03:27;7.40;;;3.92;;
65535;SDS011;52145;49.342;9.116;2022-10-26T10:06:14;8.40;;;3.78;;
65535;SDS011;52145;49.342;9.116;2022-10-26T10:08:42;12.07;;;2.80;;
65535;SDS011;52145;49.342;9.116;2022-10-26T10:11:11;10.38;;;3.47;;
65535;SDS011;52145;49.342;9.116;2022-10-26T10:13:42;9.60;;;3.60;;
65535;SDS011;52145;49.342;9.116;2022-10-26T10:18:35;9.55;;;3.42;;
65535;SDS011;52145;49.342;9.116;2022-10-26T10:21:03;8.27;;;3.45;;
65535;SDS011;52145;49.342;9.116;2022-10-26T10:23:33;9.25;;;3.60;;
65535;SDS011;52145;49.342;9.116;2022-10-26T10:26:05;11.32;;;3.53;;
65535;SDS011;52145;49.342;9.116;2022-10-26T10:28:32;10.43;;;3.63;;
65535;SDS011;52145;49.342;9.116;2022-10-26T10:31:00;7.63;;;2.70;;
65535;SDS011;52145;49.342;9.116;2022-10-26T10:33:35;11.32;;;3.80;;
65535;SDS011;52145;49.342;9.116;2022-10-26T10:36:01;10.73;;;3.67;;
65535;SDS011;52145;49.342;9.116;2022-10-26T10:38:30;7.95;;;3.75;;
65535;SDS011;52145;49.342;9.116;2022-10-26T10:41:02;9.25;;;3.40;;
65535;SDS011;52145;49.342;9.116;2022-10-26T10:43:29;11.70;;;3.30;;
65535;SDS011;52145;49.342;9.116;2022-10-26T10:45:55;9.18;;;3.13;;
65535;SDS011;52145;49.342;9.116;2022-10-26T10:48:23;15.15;;;3.92;;
65535;SDS011;52145;49.342;9.116;2022-10-26T10:50:59;10.07;;;3.25;;
65535;SDS011;52145;49.342;9.116;2022-10-26T10:53:45;9.40;;;3.45;;
65535;SDS011;52145;49.342;9.116;2022-10-26T10:56:32;7.00;;;2.72;;
65535;SDS011;52145;49.342;9.116;2022-10-26T11:10:39;6.78;;;2.25;;
65535;SDS011;52145;49.342;9.116;2022-10-26T11:16:03;9.65;;;2.63;;
65535;SDS011;52145;49.342;9.116;2022-10-26T11:18:38;10.77;;;2.47;;
65535;SDS011;52145;49.342;9.116;2022-10-26T11:21:18;8.32;;;1.88;;
65535;SDS011;52145;49.342;9.116;2022-10-26T11:29:25;6.97;;;2.00;;
65535;SDS011;52145;49.342;9.116;2022-10-26T11:32:02;4.10;;;2.00;;
65535;SDS011;52145;49.342;9.116;2022-10-26T11:37:26;6.25;;;2.20;;
65535;SDS011;52145;49.342;9.116;2022-10-26T11:42:43;9.60;;;2.15;;
65535;SDS011;52145;49.342;9.116;2022-10-26T11:45:19;8.65;;;2.08;;
65535;SDS011;52145;49.342;9.116;2022-10-26T11:47:59;7.68;;;2.25;;
65535;SDS011;52145;49.342;9.116;2022-10-26T11:53:11;9.07;;;2.47;;
65535;SDS011;52145;49.342;9.116;2022-10-26T11:55:40;7.95;;;2.20;;
65535;SDS011;52145;49.342;9.116;2022-10-26T11:58:10;7.78;;;2.40;;
65535;SDS011;52145;49.342;9.116;2022-10-26T12:00:45;7.35;;;2.15;;
65535;SDS011;52145;49.342;9.116;2022-10-26T12:03:16;4.47;;;1.90;;
65535;SDS011;52145;49.342;9.116;2022-10-26T12:05:47;4.55;;;1.88;;
65535;SDS011;52145;49.342;9.116;2022-10-26T12:10:59;6.47;;;1.50;;
65535;SDS011;52145;49.342;9.116;2022-10-26T12:13:37;6.32;;;1.73;;
65535;SDS011;52145;49.342;9.116;2022-10-26T12:18:48;4.53;;;1.75;;
65535;SDS011;52145;49.342;9.116;2022-10-26T12:21:17;7.60;;;2.53;;
65535;SDS011;52145;49.342;9.116;2022-10-26T12:26:49;9.98;;;2.33;;
65535;SDS011;52145;49.342;9.116;2022-10-26T12:31:53;7.60;;;2.88;;
65535;SDS011;52145;49.342;9.116;2022-10-26T12:44:39;9.70;;;2.05;;
65535;SDS011;52145;49.342;9.116;2022-10-26T12:49:59;8.20;;;1.98;;
65535;SDS011;52145;49.342;9.116;2022-10-26T12:52:27;10.75;;;2.38;;
65535;SDS011;52145;49.342;9.116;2022-10-26T12:55:06;6.75;;;1.75;;
65535;SDS011;52145;49.342;9.116;2022-10-26T12:57:42;6.78;;;1.50;;
65535;SDS011;52145;49.342;9.116;2022-10-26T13:00:31;5.93;;;1.50;;
65535;SDS011;52145;49.342;9.116;2022-10-26T13:08:22;8.88;;;2.58;;
65535;SDS011;52145;49.342;9.116;2022-10-26T13:11:01;9.63;;;1.67;;
65535;SDS011;52145;49.342;9.116;2022-10-26T13:13:37;7.57;;;1.88;;
65535;SDS011;52145;49.342;9.116;2022-10-26T13:16:03;10.20;;;2.35;;
65535;SDS011;52145;49.342;9.116;2022-10-26T13:18:39;5.07;;;1.58;;
65535;SDS011;52145;49.342;9.116;2022-10-26T13:21:10;5.40;;;1.88;;
65535;SDS011;52145;49.342;9.116;2022-10-26T13:26:26;6.15;;;1.90;;
65535;SDS011;52145;49.342;9.116;2022-10-26T13:29:00;9.30;;;2.15;;
65535;SDS011;52145;49.342;9.116;2022-10-26T13:34:00;4.32;;;1.92;;
65535;SDS011;52145;49.342;9.116;2022-10-26T13:39:14;5.40;;;1.95;;
65535;SDS011;52145;49.342;9.116;2022-10-26T13:41:44;8.23;;;2.15;;
65535;SDS011;52145;49.342;9.116;2022-10-26T13:44:27;7.57;;;1.95;;
65535;SDS011;52145;49.342;9.116;2022-10-26T13:47:02;10.80;;;2.33;;
65535;SDS011;52145;49.342;9.116;2022-10-26T13:49:38;6.38;;;1.75;;
65535;SDS011;52145;49.342;9.116;2022-10-26T13:52:11;6.75;;;2.20;;
65535;SDS011;52145;49.342;9.116;2022-10-26T13:54:49;10.80;;;2.33;;
65535;SDS011;52145;49.342;9.116;2022-10-26T13:59:56;5.53;;;1.77;;
65535;SDS011;52145;49.342;9.116;2022-10-26T14:02:25;5.78;;;1.83;;
65535;SDS011;52145;49.342;9.116;2022-10-26T14:04:58;5.80;;;1.77;;
65535;SDS011;52145;49.342;9.116;2022-10-26T14:07:27;6.32;;;1.50;;
65535;SDS011;52145;49.342;9.116;2022-10-26T14:09:59;7.03;;;2.53;;
65535;SDS011;52145;49.342;9.116;2022-10-26T14:12:25;6.20;;;1.65;;
65535;SDS011;52145;49.342;9.116;2022-10-26T14:15:15;6.10;;;1.70;;
65535;SDS011;52145;49.342;9.116;2022-10-26T14:17:42;10.30;;;2.20;;
65535;SDS011;52145;49.342;9.116;2022-10-26T14:20:18;6.35;;;2.08;;
65535;SDS011;52145;49.342;9.116;2022-10-26T14:22:45;6.05;;;2.15;;
65535;SDS011;52145;49.342;9.116;2022-10-26T14:25:17;5.82;;;1.58;;
65535;SDS011;52145;49.342;9.116;2022-10-26T14:27:46;6.93;;;2.00;;
65535;SDS011;52145;49.342;9.116;2022-10-26T14:32:47;5.75;;;1.75;;
65535;SDS011;52145;49.342;9.116;2022-10-26T14:35:14;8.60;;;2.40;;
65535;SDS011;52145;49.342;9.116;2022-10-26T14:37:57;4.55;;;1.90;;
65535;SDS011;52145;49.342;9.116;2022-10-26T14:40:39;4.53;;;1.67;;
65535;SDS011;52145;49.342;9.116;2022-10-26T14:43:05;5.85;;;2.08;;
65535;SDS011;52145;49.342;9.116;2022-10-26T14:45:33;11.68;;;4.63;;
65535;SDS011;52145;49.342;9.116;2022-10-26T14:48:01;6.57;;;2.42;;
65535;SDS011;52145;49.342;9.116;2022-10-26T14:50:28;6.13;;;1.77;;
65535;SDS011;52145;49.342;9.116;2022-10-26T14:53:01;7.68;;;2.00;;
65535;SDS011;52145;49.342;9.116;2022-10-26T14:55:42;7.47;;;1.98;;
65535;SDS011;52145;49.342;9.116;2022-10-26T14:58:16;6.47;;;1.98;;
65535;SDS011;52145;49.342;9.116;2022-10-26T15:03:41;5.47;;;2.20;;
65535;SDS011;52145;49.342;9.116;2022-10-26T15:08:55;7.75;;;2.08;;
65535;SDS011;52145;49.342;9.116;2022-10-26T15:11:23;7.38;;;2.25;;
65535;SDS011;52145;49.342;9.116;2022-10-26T15:13:50;6.30;;;2.05;;
65535;SDS011;52145;49.342;9.116;2022-10-26T15:16:19;7.40;;;1.90;;
65535;SDS011;52145;49.342;9.116;2022-10-26T15:18:48;7.63;;;2.22;;
65535;SDS011;52145;49.342;9.116;2022-10-26T15:23:44;5.85;;;1.75;;
65535;SDS011;52145;49.342;9.116;2022-10-26T15:26:10;5.28;;;2.15;;
65535;SDS011;52145;49.342;9.116;2022-10-26T15:38:47;6.45;;;2.47;;
65535;SDS011;52145;49.342;9.116;2022-10-26T15:41:17;7.15;;;2.22;;
65535;SDS011;52145;49.342;9.116;2022-10-26T15:43:45;8.57;;;2.30;;
65535;SDS011;52145;49.342;9.116;2022-10-26T15:46:12;6.82;;;2.45;;
65535;SDS011;52145;49.342;9.116;2022-10-26T15:48:38;8.65;;;3.35;;
65535;SDS011;52145;49.342;9.116;2022-10-26T15:51:04;11.05;;;3.20;;
65535;SDS011;52145;49.342;9.116;2022-10-26T15:53:31;8.95;;;3.72;;
65535;SDS011;52145;49.342;9.116;2022-10-26T15:55:57;9.57;;;3.92;;
65535;SDS011;52145;49.342;9.116;2022-10-26T15:58:24;8.93;;;3.90;;
65535;SDS011;52145;49.342;9.116;2022-10-26T16:00:50;10.75;;;3.58;;
65535;SDS011;52145;49.342;9.116;2022-10-26T16:03:19;11.63;;;3.47;;
65535;SDS011;52145;49.342;9.116;2022-10-26T16:05:51;9.63;;;4.18;;
65535;SDS011;52145;49.342;9.116;2022-10-26T16:08:22;8.00;;;3.67;;
65535;SDS011;52145;49.342;9.116;2022-10-26T16:10:49;13.38;;;4.40;;
65535;SDS011;52145;49.342;9.116;2022-10-26T16:13:15;13.38;;;4.45;;
65535;SDS011;52145;49.342;9.116;2022-10-26T16:15:41;12.13;;;4.63;;
65535;SDS011;52145;49.342;9.116;2022-10-26T16:18:07;14.45;;;4.25;;
65535;SDS011;52145;49.342;9.116;2022-10-26T16:20:33;9.88;;;5.07;;
65535;SDS011;52145;49.342;9.116;2022-10-26T16:22:58;8.68;;;4.65;;
65535;SDS011;52145;49.342;9.116;2022-10-26T16:25:30;11.95;;;3.85;;
65535;SDS011;52145;49.342;9.116;2022-10-26T16:27:57;9.85;;;3.67;;
65535;SDS011;52145;49.342;9.116;2022-10-26T16:30:23;9.40;;;3.35;;
65535;SDS011;52145;49.342;9.116;2022-10-26T16:32:48;11.27;;;5.15;;
65535;SDS011;52145;49.342;9.116;2022-10-26T16:35:14;7.35;;;3.13;;
65535;SDS011;52145;49.342;9.116;2022-10-26T16:37:40;10.02;;;3.55;;
65535;SDS011;52145;49.342;9.116;2022-10-26T16:40:06;12.65;;;3.45;;
65535;SDS011;52145;49.342;9.116;2022-10-26T16:42:32;6.78;;;3.75;;
65535;SDS011;52145;49.342;9.116;2022-10-26T16:44:58;11.25;;;3.85;;
65535;SDS011;52145;49.342;9.116;2022-10-26T16:47:24;6.78;;;3.15;;
65535;SDS011;52145;49.342;9.116;2022-10-26T16:49:50;10.02;;;3.03;;
65535;SDS011;52145;49.342;9.116;2022-10-26T16:52:16;15.27;;;3.30;;
65535;SDS011;52145;49.342;9.116;2022-10-26T16:54:41;8.93;;;2.97;;
65535;SDS011;52145;49.342;9.116;2022-10-26T16:57:07;8.13;;;3.15;;
65535;SDS011;52145;49.342;9.116;2022-10-26T16:59:32;8.48;;;2.95;;
65535;SDS011;52145;49.342;9.116;2022-10-26T17:01:58;10.43;;;3.90;;
65535;SDS011;52145;49.342;9.116;2022-10-26T17:04:23;10.88;;;3.90;;
65535;SDS011;52145;49.342;9.116;2022-10-26T17:06:49;12.30;;;4.25;;
65535;SDS011;52145;49.342;9.116;2022-10-26T17:09:14;12.80;;;4.38;;
65535;SDS011;52145;49.342;9.116;2022-10-26T17:11:40;12.13;;;3.90;;
65535;SDS011;52145;49.342;9.116;2022-10-26T17:14:05;17.40;;;5.07;;
65535;SDS011;52145;49.342;9.116;2022-10-26T17:16:31;11.15;;;5.00;;
65535;SDS011;52145;49.342;9.116;2022-10-26T17:18:58;14.07;;;5.38;;
65535;SDS011;52145;49.342;9.116;2022-10-26T17:21:31;15.95;;;4.95;;
65535;SDS011;52145;49.342;9.116;2022-10-26T17:23:59;16.23;;;6.00;;